Time;durP1;ratioP1;P1;durP2;ratioP2;P2;SDS_P1;SDS_P2;PMS_P1;PMS_P2;Temp;Humidity;BMP_temperature;BMP_pressure;BME280_temperature;BME280_humidity;BME280_pressure;Samples;Min_cycle;Max_cycle;Signal;HPM_P1;HPM_P2
2022/03/29 00:00:48;;;;;;;22.90;10.23;;;;;;;8.63;38.58;99870.22;6324400;28;20044;-75
2022/03/29 00:03:49;;;;;;;29.83;11.02;;;;;;;8.58;38.64;99869.59;6324052;28;20113;-76
2022/03/29 00:06:51;;;;;;;24.38;10.55;;;;;;;8.61;38.46;99869.44;6323014;28;20506;-75
2022/03/29 00:09:51;;;;;;;25.30;11.70;;;;;;;8.68;38.43;99862.97;6324176;28;20476;-76
2022/03/29 00:12:55;;;;;;;24.00;10.55;;;;;;;8.64;38.58;99858.88;6322534;28;20130;-72
2022/03/29 00:15:56;;;;;;;22.10;10.98;;;;;;;8.60;38.38;99845.19;6322497;28;20479;-71
2022/03/29 00:18:56;;;;;;;20.50;11.38;;;;;;;8.59;39.13;99855.69;6323431;28;20048;-71
2022/03/29 00:21:57;;;;;;;24.00;10.35;;;;;;;8.52;38.93;99847.38;6323472;28;20067;-71
2022/03/29 00:24:58;;;;;;;26.52;11.30;;;;;;;8.55;38.70;99836.81;6305336;28;20063;-71
2022/03/29 00:27:59;;;;;;;21.27;10.80;;;;;;;8.48;38.76;99840.66;6305407;28;20068;-71
2022/03/29 00:31:00;;;;;;;24.42;11.40;;;;;;;8.30;39.04;99833.84;6323218;28;20048;-71
2022/03/29 00:34:01;;;;;;;19.15;10.82;;;;;;;8.40;39.00;99829.81;6323337;28;20040;-76
2022/03/29 00:37:02;;;;;;;23.98;10.95;;;;;;;8.36;39.34;99826.56;6322310;28;20044;-76
2022/03/29 00:40:05;;;;;;;24.95;11.60;;;;;;;8.33;39.50;99818.09;6322309;28;20123;-76
2022/03/29 00:43:08;;;;;;;27.30;11.18;;;;;;;8.34;39.08;99818.03;6305056;28;20083;-76
2022/03/29 00:46:09;;;;;;;22.63;11.68;;;;;;;8.36;39.06;99808.38;6305563;28;20124;-75
2022/03/29 00:49:10;;;;;;;26.92;11.60;;;;;;;8.26;39.28;99804.63;6323229;28;20036;-75
2022/03/29 00:52:11;;;;;;;19.50;10.93;;;;;;;8.20;39.67;99808.38;6322025;28;20047;-75
2022/03/29 00:55:13;;;;;;;27.77;11.35;;;;;;;8.19;39.68;99800.66;6320858;28;20048;-76
2022/03/29 00:58:15;;;;;;;30.27;11.63;;;;;;;8.13;39.74;99796.63;6322912;28;20142;-76
2022/03/29 01:01:16;;;;;;;24.15;11.13;;;;;;;8.19;39.65;99803.25;6321727;28;20076;-76
2022/03/29 01:04:21;;;;;;;26.90;12.18;;;;;;;8.17;39.65;99807.72;6321263;28;20063;-76
2022/03/29 01:07:22;;;;;;;27.70;11.20;;;;;;;8.13;39.69;99795.81;6322751;28;20501;-75
2022/03/29 01:10:24;;;;;;;26.33;10.65;;;;;;;8.07;39.92;99803.03;6321473;28;20052;-75
2022/03/29 01:13:25;;;;;;;20.70;10.77;;;;;;;8.15;39.65;99799.16;6322681;28;20097;-76
2022/03/29 01:19:46;;;;;;;21.92;9.90;;;;;;;8.07;39.78;99783.97;6322052;28;20063;-72
2022/03/29 01:22:52;;;;;;;22.45;10.05;;;;;;;8.08;39.88;99783.06;6320850;28;20068;-71
2022/03/29 01:25:53;;;;;;;24.38;9.90;;;;;;;8.13;39.61;99781.03;6320194;28;20461;-72
2022/03/29 01:28:55;;;;;;;19.55;10.05;;;;;;;8.08;39.30;99778.69;6336838;28;20059;-71
2022/03/29 01:31:58;;;;;;;23.63;10.13;;;;;;;7.99;40.27;99787.00;6320452;28;20133;-71
2022/03/29 01:34:59;;;;;;;18.05;9.98;;;;;;;8.15;39.47;99775.75;6321976;28;20072;-72
2022/03/29 01:38:00;;;;;;;23.13;9.30;;;;;;;8.05;40.00;99778.88;6321600;28;20036;-72
2022/03/29 01:41:05;;;;;;;24.38;10.63;;;;;;;8.01;39.79;99776.50;6321784;28;20551;-71
2022/03/29 01:44:10;;;;;;;24.45;10.10;;;;;;;8.03;40.10;99766.88;6321685;28;20438;-72
2022/03/29 01:47:11;;;;;;;20.38;9.68;;;;;;;7.94;40.21;99772.59;6321836;28;20067;-72
2022/03/29 01:50:13;;;;;;;21.48;10.05;;;;;;;7.88;39.79;99768.56;6320406;28;20410;-71
2022/03/29 01:53:27;;;;;;;21.58;9.45;;;;;;;7.83;40.90;99768.81;6303723;28;20476;-71
2022/03/29 01:56:31;;;;;;;21.92;9.65;;;;;;;7.70;40.71;99762.63;6320291;28;20075;-71
2022/03/29 02:00:30;;;;;;;20.73;9.63;;;;;;;7.61;40.77;99757.91;6337072;28;20193;-71
2022/03/29 02:02:52;;;;;;;41.40;11.40;;;;;;;7.64;40.81;99752.56;6320355;28;20048;-72
2022/03/29 02:05:53;;;;;;;20.27;10.40;;;;;;;7.64;40.99;99744.78;6321152;28;20054;-71
2022/03/29 02:08:57;;;;;;;23.63;10.32;;;;;;;7.54;40.94;99741.00;6319990;28;20040;-71
2022/03/29 02:11:57;;;;;;;23.10;9.90;;;;;;;7.52;40.41;99741.06;6321358;28;20464;-71
2022/03/29 02:14:59;;;;;;;22.05;9.90;;;;;;;7.43;41.15;99737.22;6321250;28;20054;-71
2022/03/29 02:17:59;;;;;;;23.13;10.38;;;;;;;7.38;41.18;99735.75;6321332;28;20546;-71
2022/03/29 02:21:00;;;;;;;22.52;9.57;;;;;;;7.37;41.27;99734.06;6321188;28;20052;-72
2022/03/29 02:24:01;;;;;;;19.98;9.30;;;;;;;7.29;41.08;99726.72;6320020;28;20051;-71
2022/03/29 02:27:01;;;;;;;18.63;8.88;;;;;;;7.33;41.45;99732.56;6319874;28;20475;-71
2022/03/29 02:30:03;;;;;;;26.13;9.63;;;;;;;7.32;41.42;99729.13;6302941;28;20109;-71
2022/03/29 02:33:06;;;;;;;18.30;9.07;;;;;;;7.31;41.20;99730.06;6321160;28;20044;-70
2022/03/29 02:36:09;;;;;;;24.50;8.98;;;;;;;7.37;41.09;99728.88;6321109;28;20706;-71
2022/03/29 02:39:10;;;;;;;24.08;10.68;;;;;;;7.20;41.40;99733.19;6319855;28;20097;-75
2022/03/29 02:42:11;;;;;;;18.13;8.93;;;;;;;7.24;41.48;99724.34;6303271;28;20048;-76
2022/03/29 02:45:16;;;;;;;17.02;8.85;;;;;;;7.16;41.29;99723.91;6320160;28;20468;-75
2022/03/29 02:48:17;;;;;;;19.05;9.48;;;;;;;7.14;41.50;99724.91;6321049;28;20043;-75
2022/03/29 02:51:18;;;;;;;23.10;10.30;;;;;;;7.23;41.53;99724.44;6320033;28;20070;-75
2022/03/29 02:54:19;;;;;;;17.10;10.32;;;;;;;7.03;42.09;99715.09;6321011;28;20040;-75
2022/03/29 02:57:21;;;;;;;24.23;13.05;;;;;;;7.02;41.94;99716.00;6320008;28;20046;-75
2022/03/29 03:00:23;;;;;;;26.35;13.82;;;;;;;7.15;41.47;99711.84;6321081;28;20048;-75
2022/03/29 03:03:23;;;;;;;25.90;14.50;;;;;;;7.07;41.84;99706.22;6321265;28;20143;-75
2022/03/29 03:06:25;;;;;;;29.45;13.68;;;;;;;7.06;41.87;99697.63;6319453;28;20044;-75
2022/03/29 03:09:25;;;;;;;26.05;13.85;;;;;;;7.02;42.58;99696.09;6319842;28;20055;-75
2022/03/29 03:12:26;;;;;;;32.03;16.42;;;;;;;6.98;42.17;99696.31;6319059;28;20085;-76
2022/03/29 03:15:27;;;;;;;31.83;16.65;;;;;;;6.93;42.26;99699.16;6286516;28;20048;-76
2022/03/29 03:18:28;;;;;;;25.88;13.55;;;;;;;6.89;42.35;99697.63;6322693;28;20411;-75
2022/03/29 03:21:29;;;;;;;17.70;9.55;;;;;;;6.85;42.45;99704.72;6307231;28;20040;-75
2022/03/29 03:24:30;;;;;;;20.75;10.38;;;;;;;6.91;42.39;99697.56;6325450;28;20048;-75
2022/03/29 03:27:31;;;;;;;25.10;9.98;;;;;;;6.81;42.77;99692.00;6289374;28;20106;-71
2022/03/29 03:30:33;;;;;;;18.67;9.13;;;;;;;6.75;43.08;99693.16;6323736;28;20472;-71
2022/03/29 03:33:34;;;;;;;18.55;9.40;;;;;;;6.82;42.74;99689.34;6322599;28;20122;-71
2022/03/29 03:36:34;;;;;;;24.92;11.07;;;;;;;6.79;43.20;99691.25;6323821;28;20044;-75
2022/03/29 03:39:40;;;;;;;24.50;10.93;;;;;;;6.67;43.77;99682.31;6323946;28;20040;-76
2022/03/29 03:42:43;;;;;;;21.73;12.02;;;;;;;6.68;43.22;99685.78;6323739;28;20487;-76
2022/03/29 03:45:44;;;;;;;27.77;13.63;;;;;;;6.63;43.33;99688.59;6306575;28;20051;-75
2022/03/29 03:48:45;;;;;;;22.30;11.35;;;;;;;6.66;43.19;99684.09;6306690;28;20062;-75
2022/03/29 03:51:45;;;;;;;22.08;11.02;;;;;;;6.68;43.92;99675.41;6312100;28;20464;-76
2022/03/29 03:54:47;;;;;;;22.17;10.85;;;;;;;6.65;43.59;99677.25;6298268;28;20056;-76
2022/03/29 03:57:48;;;;;;;20.20;10.18;;;;;;;6.57;43.88;99679.38;6299508;28;20047;-75
2022/03/29 04:00:50;;;;;;;21.73;10.60;;;;;;;6.57;44.23;99676.78;6304418;28;20596;-76
2022/03/29 04:03:51;;;;;;;23.88;11.32;;;;;;;6.69;43.88;99679.66;6323040;28;20073;-71
2022/03/29 04:06:52;;;;;;;20.42;9.85;;;;;;;6.62;44.10;99669.59;6324043;28;20176;-71
2022/03/29 04:09:53;;;;;;;20.58;10.07;;;;;;;6.54;44.34;99673.50;6311339;28;20119;-71
2022/03/29 04:12:54;;;;;;;22.77;10.50;;;;;;;6.53;44.35;99667.50;6323815;28;20118;-71
2022/03/29 04:15:54;;;;;;;23.45;11.25;;;;;;;6.55;44.26;99670.00;6322559;28;20606;-71
2022/03/29 04:18:55;;;;;;;21.25;11.65;;;;;;;6.54;43.65;99676.94;6322620;28;20048;-71
2022/03/29 04:21:56;;;;;;;26.98;11.27;;;;;;;6.61;44.30;99661.91;6322197;28;20122;-71
2022/03/29 04:24:57;;;;;;;23.95;11.40;;;;;;;6.47;44.70;99654.84;6304626;28;20106;-71
2022/03/29 04:28:05;;;;;;;21.42;10.88;;;;;;;6.57;44.43;99655.19;6298730;28;20044;-71
2022/03/29 04:31:08;;;;;;;21.73;10.40;;;;;;;6.58;44.42;99638.72;6323001;28;20139;-71
2022/03/29 04:34:09;;;;;;;19.13;10.27;;;;;;;6.49;44.57;99634.88;6322188;28;20048;-71
2022/03/29 04:37:10;;;;;;;18.70;9.98;;;;;;;6.47;45.36;99628.91;6299616;28;20158;-71
2022/03/29 04:40:12;;;;;;;19.67;10.43;;;;;;;6.42;45.61;99634.34;6297991;28;20476;-71
2022/03/29 04:43:13;;;;;;;20.27;10.85;;;;;;;6.41;45.41;99632.66;6316112;28;20036;-71
2022/03/29 04:46:14;;;;;;;23.67;11.27;;;;;;;6.36;45.72;99637.25;6321830;28;20481;-71
2022/03/29 04:49:14;;;;;;;21.83;10.52;;;;;;;6.39;45.81;99631.06;6321535;28;20395;-71
2022/03/29 04:52:16;;;;;;;22.67;10.35;;;;;;;6.37;45.82;99619.94;6303838;28;20040;-71
2022/03/29 04:55:18;;;;;;;22.98;10.95;;;;;;;6.48;45.55;99634.94;6321797;28;20052;-72
2022/03/29 04:58:21;;;;;;;22.48;11.05;;;;;;;6.57;45.33;99626.69;6313136;28;20044;-72
2022/03/29 05:01:22;;;;;;;19.77;10.20;;;;;;;6.61;45.72;99626.47;6306495;28;20418;-72
2022/03/29 05:04:23;;;;;;;20.77;10.98;;;;;;;6.67;45.16;99622.69;6299288;28;20404;-71
2022/03/29 05:07:24;;;;;;;32.63;11.05;;;;;;;6.84;45.17;99617.47;6278504;28;20048;-71
2022/03/29 05:10:26;;;;;;;22.02;11.75;;;;;;;6.77;45.38;99617.88;6294359;28;20076;-71
2022/03/29 05:13:28;;;;;;;23.73;10.65;;;;;;;6.69;45.36;99613.09;6311286;28;20499;-71
2022/03/29 05:16:29;;;;;;;29.30;12.15;;;;;;;6.75;45.99;99610.16;6311209;28;20040;-71
2022/03/29 05:19:30;;;;;;;25.35;11.68;;;;;;;6.83;45.78;99612.38;6294621;28;20543;-71
2022/03/29 05:22:31;;;;;;;26.77;11.00;;;;;;;6.72;45.41;99620.72;6295575;28;20123;-71
2022/03/29 05:25:33;;;;;;;24.58;11.73;;;;;;;6.94;45.27;99622.16;6295613;28;20048;-72
2022/03/29 05:28:34;;;;;;;23.63;11.93;;;;;;;6.88;45.11;99612.13;6295447;28;20389;-72
2022/03/29 05:31:35;;;;;;;21.80;11.50;;;;;;;6.88;45.33;99606.94;6277699;28;20044;-71
2022/03/29 05:34:36;;;;;;;30.58;11.38;;;;;;;7.01;45.14;99602.78;6310991;28;20072;-72
2022/03/29 05:37:39;;;;;;;28.05;11.75;;;;;;;7.07;45.11;99605.06;6295285;28;20048;-71
2022/03/29 05:40:40;;;;;;;;;;;;;;;7.20;44.65;99600.03;6294089;28;20051;-71
2022/03/29 05:43:42;;;;;;;24.27;11.25;;;;;;;7.18;44.64;99594.09;6295249;28;19987;-71
2022/03/29 05:50:02;;;;;;;23.25;11.98;;;;;;;7.53;44.44;99583.53;6308354;28;20044;-71
2022/03/29 05:53:03;;;;;;;32.28;11.70;;;;;;;7.66;43.92;99579.34;6295133;28;20049;-71
2022/03/29 05:56:04;;;;;;;31.50;12.68;;;;;;;7.70;44.66;99587.75;6293728;28;20097;-71
2022/03/29 05:59:07;;;;;;;25.30;11.20;;;;;;;7.86;43.52;99580.78;6310738;28;20457;-72
2022/03/29 06:02:08;;;;;;;27.08;11.98;;;;;;;8.07;43.29;99581.28;6310193;28;20045;-72
2022/03/29 06:05:09;;;;;;;20.95;11.27;;;;;;;8.15;43.04;99567.84;6293787;28;20057;-71
2022/03/29 06:08:11;;;;;;;23.13;11.68;;;;;;;8.42;42.93;99575.81;6310382;28;20037;-71
2022/03/29 06:11:13;;;;;;;25.58;11.68;;;;;;;8.61;42.04;99570.38;6310447;28;20041;-71
2022/03/29 06:14:14;;;;;;;24.38;11.55;;;;;;;8.93;41.61;99560.56;6310360;28;20075;-72
2022/03/29 06:17:16;;;;;;;22.55;11.98;;;;;;;9.22;40.24;99557.91;6293694;28;20067;-71
2022/03/29 06:20:17;;;;;;;26.83;12.43;;;;;;;9.46;40.40;99545.94;6276944;28;20492;-71
2022/03/29 06:23:19;;;;;;;29.83;12.75;;;;;;;9.50;39.81;99550.97;6310276;28;20043;-71
2022/03/29 06:26:20;;;;;;;22.73;12.10;;;;;;;9.64;38.28;99556.13;6294855;28;20040;-71
2022/03/29 06:29:21;;;;;;;32.15;11.85;;;;;;;9.84;38.14;99562.59;6293804;28;20044;-71
2022/03/29 06:32:23;;;;;;;30.42;12.57;;;;;;;10.05;38.21;99562.97;6310296;28;20048;-71
2022/03/29 06:35:27;;;;;;;37.30;12.10;;;;;;;10.23;37.89;99559.16;6293447;28;20056;-71
2022/03/29 06:38:31;;;;;;;30.20;11.50;;;;;;;10.45;37.31;99552.50;6294700;28;20039;-71
2022/03/29 06:41:32;;;;;;;33.05;11.82;;;;;;;10.50;37.31;99558.25;6294478;28;20052;-71
2022/03/29 06:44:34;;;;;;;27.70;12.57;;;;;;;10.63;36.94;99555.63;6310033;28;20056;-71
2022/03/29 06:47:35;;;;;;;20.67;11.13;;;;;;;10.73;37.06;99568.84;6294596;28;20045;-71
2022/03/29 06:50:37;;;;;;;;;;;;;;;10.84;36.46;99553.28;6294879;28;20094;-72
2022/03/29 06:53:39;;;;;;;24.40;11.80;;;;;;;10.94;36.11;99550.88;6297552;28;20018;-72
2022/03/29 06:56:40;;;;;;;24.33;11.95;;;;;;;11.16;36.19;99568.44;6314590;28;20033;-72
2022/03/29 06:59:41;;;;;;;32.47;11.98;;;;;;;11.20;36.05;99555.06;6297901;28;20044;-72
2022/03/29 07:02:44;;;;;;;26.47;11.47;;;;;;;11.27;36.30;99534.56;6299020;28;20040;-72
2022/03/29 07:05:48;;;;;;;34.00;13.63;;;;;;;11.63;36.02;99544.13;6281026;28;20209;-72
2022/03/29 07:12:08;;;;;;;22.80;12.52;;;;;;;11.92;35.87;99551.59;6298736;28;20483;-72
2022/03/29 07:15:10;;;;;;;30.25;14.07;;;;;;;12.07;35.42;99533.94;6264047;28;20094;-72
2022/03/29 07:18:12;;;;;;;23.30;12.25;;;;;;;12.24;35.26;99551.81;6314274;28;20041;-72
2022/03/29 07:21:12;;;;;;;25.88;12.60;;;;;;;12.34;34.70;99556.34;6297440;28;20052;-72
2022/03/29 07:24:14;;;;;;;27.52;13.63;;;;;;;12.59;34.80;99547.44;6298527;28;20186;-72
2022/03/29 07:27:15;;;;;;;24.50;12.23;;;;;;;12.97;35.36;99533.97;6298710;28;20044;-72
2022/03/29 07:30:16;;;;;;;23.15;12.73;;;;;;;13.18;34.18;99531.44;6298391;28;20119;-72
2022/03/29 07:33:18;;;;;;;27.90;12.85;;;;;;;13.30;33.74;99540.09;6298187;28;20041;-72
2022/03/29 07:36:19;;;;;;;33.13;14.37;;;;;;;13.35;33.67;99537.13;6296971;28;20056;-72
2022/03/29 07:39:19;;;;;;;26.95;13.13;;;;;;;13.41;34.48;99531.41;6298251;28;20130;-72
2022/03/29 07:42:21;;;;;;;28.42;13.85;;;;;;;13.65;33.78;99537.25;6313690;28;20044;-71
2022/03/29 07:45:22;;;;;;;28.38;13.32;;;;;;;13.83;33.57;99529.66;6298036;28;20079;-72
2022/03/29 07:48:24;;;;;;;27.15;13.93;;;;;;;13.77;33.92;99521.47;6314443;28;20061;-73
2022/03/29 07:51:25;;;;;;;29.27;13.75;;;;;;;14.02;33.43;99522.88;6297640;28;20123;-72
2022/03/29 07:54:26;;;;;;;25.00;13.55;;;;;;;13.86;33.35;99511.06;6313257;28;20044;-72
2022/03/29 07:57:27;;;;;;;44.40;14.25;;;;;;;14.15;33.68;99512.19;6297867;28;20051;-72
2022/03/29 08:00:31;;;;;;;31.60;14.50;;;;;;;14.62;33.44;99505.53;6297882;28;20495;-72
2022/03/29 08:03:33;;;;;;;34.22;14.00;;;;;;;14.72;33.44;99495.03;6312057;28;20245;-73
2022/03/29 08:06:34;;;;;;;28.95;13.57;;;;;;;14.91;33.57;99497.72;6313006;28;20037;-72
2022/03/29 08:09:35;;;;;;;23.58;14.15;;;;;;;14.95;32.90;99492.19;6297399;28;20040;-72
2022/03/29 08:12:36;;;;;;;26.48;14.35;;;;;;;15.14;32.67;99486.16;6313225;28;20048;-72
2022/03/29 08:15:39;;;;;;;29.65;13.88;;;;;;;15.26;33.29;99487.69;6295965;28;20072;-72
2022/03/29 08:18:40;;;;;;;29.02;14.07;;;;;;;15.69;33.50;99489.06;6305607;28;20048;-72
2022/03/29 08:21:49;;;;;;;30.60;14.57;;;;;;;15.57;32.62;99477.88;6316595;28;20044;-71
2022/03/29 08:24:50;;;;;;;26.77;14.27;;;;;;;15.54;32.78;99479.94;6306384;28;20051;-72
2022/03/29 08:27:51;;;;;;;50.85;14.60;;;;;;;15.86;32.67;99485.75;6321898;28;20399;-72
2022/03/29 08:30:52;;;;;;;25.13;14.13;;;;;;;16.09;31.94;99477.53;6321820;28;20040;-72
2022/03/29 08:33:53;;;;;;;25.40;13.38;;;;;;;16.11;32.06;99483.47;6322927;28;20549;-71
2022/03/29 08:36:54;;;;;;;33.03;13.48;;;;;;;16.09;32.00;99480.16;6315705;28;20035;-71
2022/03/29 08:39:55;;;;;;;27.38;13.90;;;;;;;16.35;32.21;99485.63;6304290;28;20092;-71
2022/03/29 08:42:58;;;;;;;26.70;12.75;;;;;;;16.50;32.70;99472.81;6319311;28;20047;-72
2022/03/29 08:46:00;;;;;;;23.35;13.25;;;;;;;16.68;31.78;99468.41;6324453;28;20420;-72
2022/03/29 08:49:02;;;;;;;35.47;13.68;;;;;;;16.93;31.46;99471.34;6320327;28;20051;-71
2022/03/29 08:52:05;;;;;;;31.83;12.93;;;;;;;17.24;31.66;99469.19;6313476;28;20055;-72
2022/03/29 08:55:08;;;;;;;23.60;12.65;;;;;;;17.55;30.98;99455.59;6318852;28;20060;-72
2022/03/29 08:58:11;;;;;;;30.50;13.52;;;;;;;17.46;30.80;99446.81;6319928;28;20047;-71
2022/03/29 09:01:13;;;;;;;23.55;12.38;;;;;;;17.76;30.96;99451.78;6320003;28;20431;-71
2022/03/29 09:04:16;;;;;;;29.90;11.85;;;;;;;17.90;31.27;99446.81;6319998;28;20059;-72
2022/03/29 09:07:17;;;;;;;25.90;12.48;;;;;;;17.99;30.92;99438.94;6321460;28;20036;-72
2022/03/29 09:10:38;;;;;;;22.90;12.57;;;;;;;18.10;30.50;99438.69;6321110;28;20048;-73
2022/03/29 09:13:40;;;;;;;23.70;11.63;;;;;;;18.17;30.44;99429.13;6320904;28;20400;-72
2022/03/29 09:16:41;;;;;;;23.55;12.93;;;;;;;18.39;29.84;99416.34;6319932;28;20044;-72
2022/03/29 09:19:49;;;;;;;24.27;12.30;;;;;;;18.38;29.74;99417.34;6320931;28;20051;-72
2022/03/29 09:22:55;;;;;;;24.98;12.63;;;;;;;18.76;29.89;99415.13;6318065;28;20047;-72
2022/03/29 09:25:56;;;;;;;28.17;12.35;;;;;;;19.03;29.76;99411.44;6286542;28;20043;-72
2022/03/29 09:28:58;;;;;;;33.03;12.35;;;;;;;19.02;29.21;99412.41;6320926;28;20127;-72
2022/03/29 09:32:17;;;;;;;25.95;11.93;;;;;;;19.13;28.97;99415.56;6319722;28;20040;-72
2022/03/29 09:35:19;;;;;;;22.88;11.57;;;;;;;19.35;28.47;99405.31;6320554;28;20063;-72
2022/03/29 09:38:33;;;;;;;22.90;12.20;;;;;;;19.12;28.92;99400.69;6302986;28;20507;-72
2022/03/29 09:41:35;;;;;;;22.60;12.68;;;;;;;19.52;28.41;99392.91;6320662;28;20229;-73
2022/03/29 09:44:42;;;;;;;22.55;12.18;;;;;;;19.63;28.34;99392.56;6316817;28;20044;-72
2022/03/29 09:47:45;;;;;;;20.00;11.48;;;;;;;20.03;27.90;99393.47;6311827;28;20036;-72
2022/03/29 09:50:47;;;;;;;18.43;11.87;;;;;;;20.01;28.09;99382.22;6319380;28;20043;-73
2022/03/29 09:53:51;;;;;;;22.10;11.65;;;;;;;20.29;28.06;99376.50;6318961;28;20040;-73
2022/03/29 09:56:52;;;;;;;24.83;11.85;;;;;;;20.44;28.20;99372.09;6319247;28;20504;-72
2022/03/29 09:59:53;;;;;;;31.52;12.05;;;;;;;20.60;27.75;99368.56;6319454;28;20060;-72
2022/03/29 10:02:54;;;;;;;21.48;11.38;;;;;;;20.78;27.75;99372.78;6285538;28;20055;-72
2022/03/29 10:06:01;;;;;;;30.27;13.30;;;;;;;20.86;27.13;99362.13;6319109;28;20044;-72
2022/03/29 10:12:23;;;;;;;20.83;11.75;;;;;;;21.27;27.44;99359.09;6297608;28;20045;-72
2022/03/29 10:15:24;;;;;;;25.48;11.25;;;;;;;21.37;26.67;99350.91;6294998;28;20094;-72
2022/03/29 10:18:27;;;;;;;21.10;10.43;;;;;;;21.37;26.76;99349.06;6295018;28;20189;-73
2022/03/29 10:21:28;;;;;;;28.10;11.77;;;;;;;21.58;26.90;99336.94;6295024;28;20454;-72
2022/03/29 10:24:30;;;;;;;19.70;10.93;;;;;;;21.42;26.47;99337.94;6293620;28;20072;-72
2022/03/29 10:27:31;;;;;;;26.27;11.38;;;;;;;21.99;26.83;99337.34;6298000;28;20507;-72
2022/03/29 10:30:39;;;;;;;23.17;10.73;;;;;;;21.93;26.03;99336.22;6298702;28;20040;-73
2022/03/29 10:33:41;;;;;;;26.77;10.07;;;;;;;21.95;26.50;99330.75;6309849;28;20127;-73
2022/03/29 10:37:16;;;;;;;21.92;10.63;;;;;;;22.19;26.05;99321.63;6303333;28;20032;-73
2022/03/29 10:40:39;;;;;;;24.65;10.95;;;;;;;22.48;25.86;99315.41;6275920;28;20589;-72
2022/03/29 10:43:52;;;;;;;20.55;9.85;;;;;;;22.37;25.87;99318.59;6318794;28;20055;-72
2022/03/29 10:46:54;;;;;;;15.65;10.07;;;;;;;22.52;25.43;99307.91;6322437;28;20044;-72
2022/03/29 10:49:56;;;;;;;18.02;8.88;;;;;;;22.49;25.80;99310.94;6321837;28;20098;-73
2022/03/29 10:52:57;;;;;;;17.13;9.57;;;;;;;22.69;25.24;99304.00;6305972;28;20040;-73
2022/03/29 10:56:16;;;;;;;24.67;8.97;;;;;;;22.92;25.56;99313.59;6321938;28;20036;-73
2022/03/29 10:59:17;;;;;;;19.02;9.02;;;;;;;23.04;25.42;99300.63;6323652;28;20040;-72
2022/03/29 11:02:22;;;;;;;21.90;9.27;;;;;;;22.70;25.36;99297.66;6303572;28;20173;-72
2022/03/29 11:05:23;;;;;;;24.35;9.05;;;;;;;22.77;25.37;99286.25;6323327;28;20504;-72
2022/03/29 11:08:23;;;;;;;19.57;8.30;;;;;;;22.88;26.21;99294.53;6322343;28;20052;-73
2022/03/29 11:11:39;;;;;;;18.70;8.93;;;;;;;23.21;25.36;99274.56;6322479;28;20067;-73
2022/03/29 11:14:41;;;;;;;21.30;8.57;;;;;;;23.10;25.59;99273.25;6322096;28;20048;-73
2022/03/29 11:17:42;;;;;;;22.25;8.20;;;;;;;23.32;24.89;99268.69;6323919;28;20036;-72
2022/03/29 11:20:53;;;;;;;17.45;7.80;;;;;;;23.60;24.37;99265.16;6323413;28;20490;-73
2022/03/29 11:23:58;;;;;;;15.02;8.07;;;;;;;23.68;24.19;99252.50;6323086;28;20055;-73
2022/03/29 11:26:59;;;;;;;21.58;8.00;;;;;;;23.58;23.83;99246.72;6323398;28;20518;-73
2022/03/29 11:30:04;;;;;;;14.80;7.80;;;;;;;23.38;24.05;99254.59;6323105;28;20109;-74
2022/03/29 11:33:07;;;;;;;15.70;7.85;;;;;;;23.57;24.32;99239.75;6322974;28;20040;-73
2022/03/29 11:36:10;;;;;;;19.10;7.60;;;;;;;24.02;24.03;99234.00;6323038;28;20036;-77
2022/03/29 11:39:26;;;;;;;21.05;8.45;;;;;;;23.74;23.72;99218.91;6303325;28;20052;-78
2022/03/29 11:42:56;;;;;;;19.55;8.63;;;;;;;23.75;23.22;99223.22;6313024;28;20044;-78
2022/03/29 11:45:57;;;;;;;20.25;8.73;;;;;;;23.39;23.88;99218.16;6322683;28;20507;-78
2022/03/29 11:49:01;;;;;;;30.20;9.40;;;;;;;23.45;23.45;99206.72;6321949;28;20060;-78
2022/03/29 11:52:11;;;;;;;20.60;9.45;;;;;;;23.87;23.66;99196.88;6322497;28;20152;-77
2022/03/29 11:55:16;;;;;;;17.75;8.52;;;;;;;23.94;23.95;99205.69;6321539;28;20044;-77
2022/03/29 11:58:29;;;;;;;20.30;10.15;;;;;;;24.18;24.01;99192.84;6319164;28;20536;-77
2022/03/29 12:01:34;;;;;;;20.45;9.70;;;;;;;23.63;24.00;99188.34;6321499;28;20507;-78
2022/03/29 12:04:37;;;;;;;22.35;10.25;;;;;;;23.12;24.90;99186.06;6322631;28;20064;-78
2022/03/29 12:07:45;;;;;;;31.80;9.98;;;;;;;22.97;24.95;99190.66;6321494;28;20043;-77
2022/03/29 12:10:46;;;;;;;16.23;8.45;;;;;;;23.18;24.65;99174.63;6321333;28;20047;-78
2022/03/29 12:13:57;;;;;;;20.43;8.57;;;;;;;23.31;24.48;99176.56;6304525;28;20484;-77
2022/03/29 12:17:03;;;;;;;19.88;8.52;;;;;;;23.46;24.42;99169.25;6321124;28;20477;-78
2022/03/29 12:20:04;;;;;;;20.30;9.23;;;;;;;23.89;23.78;99163.69;6322567;28;20047;-77
2022/03/29 12:23:35;;;;;;;16.75;8.68;;;;;;;23.98;24.61;99156.31;6304254;28;20047;-77
2022/03/29 12:26:46;;;;;;;30.17;10.18;;;;;;;23.64;24.17;99149.22;6313061;28;20504;-78
2022/03/29 12:29:51;;;;;;;18.03;8.00;;;;;;;23.42;23.45;99148.56;6321827;28;20544;-78
2022/03/29 12:32:51;;;;;;;14.90;8.48;;;;;;;23.42;24.00;99145.91;6322985;28;20744;-78
2022/03/29 12:36:03;;;;;;;13.32;8.13;;;;;;;23.82;24.09;99138.03;6322880;28;20518;-77
2022/03/29 12:39:07;;;;;;;18.35;8.80;;;;;;;23.78;23.64;99121.63;6323156;28;20508;-78
2022/03/29 12:42:14;;;;;;;17.15;8.93;;;;;;;23.91;23.58;99113.69;6322198;28;20518;-78
2022/03/29 12:45:15;;;;;;;20.55;9.18;;;;;;;23.84;22.65;99112.03;6321367;28;20044;-78
2022/03/29 12:48:21;;;;;;;20.48;8.70;;;;;;;23.88;22.76;99100.75;6321640;28;20097;-78
2022/03/29 12:51:27;;;;;;;26.48;8.70;;;;;;;24.15;23.07;99095.44;6322705;28;20104;-77
2022/03/29 12:54:43;;;;;;;18.00;7.65;;;;;;;24.06;23.34;99100.16;6321721;28;20040;-78
2022/03/29 12:57:48;;;;;;;22.20;8.60;;;;;;;23.75;22.89;99087.41;6322733;28;20059;-78
2022/03/29 13:00:49;;;;;;;19.42;8.05;;;;;;;23.48;23.07;99084.69;6321482;28;20453;-78
2022/03/29 13:03:50;;;;;;;14.43;8.68;;;;;;;23.49;22.87;99072.19;6321377;28;20052;-78
2022/03/29 13:06:54;;;;;;;19.77;8.27;;;;;;;23.35;22.90;99074.00;6322170;28;20047;-79
2022/03/29 13:10:19;;;;;;;18.58;8.98;;;;;;;23.37;22.90;99064.00;6321081;28;20069;-78
2022/03/29 13:13:24;;;;;;;19.60;8.77;;;;;;;23.58;22.74;99059.53;6293614;28;20083;-78
2022/03/29 13:16:25;;;;;;;18.83;8.43;;;;;;;23.74;23.08;99059.13;6322147;28;20131;-78
2022/03/29 13:19:26;;;;;;;13.07;8.10;;;;;;;23.91;22.44;99064.94;6321210;28;20044;-77
2022/03/29 13:22:27;;;;;;;15.40;7.03;;;;;;;24.08;22.99;99057.34;6322218;28;20040;-77
2022/03/29 13:25:34;;;;;;;24.17;8.52;;;;;;;23.92;22.08;99047.91;6320902;28;20111;-78
2022/03/29 13:28:36;;;;;;;15.45;7.88;;;;;;;23.31;22.85;99052.28;6303701;28;20040;-78
2022/03/29 13:31:39;;;;;;;22.10;9.20;;;;;;;23.12;23.19;99047.72;6321843;28;20044;-78
2022/03/29 13:34:42;;;;;;;12.25;7.78;;;;;;;23.18;23.01;99043.44;6320282;28;20048;-78
2022/03/29 13:37:43;;;;;;;19.58;7.93;;;;;;;23.16;22.96;99040.16;6320143;28;20051;-78
2022/03/29 13:40:45;;;;;;;17.85;7.90;;;;;;;23.08;22.19;99028.69;6322027;28;20145;-78
2022/03/29 13:43:46;;;;;;;22.05;7.93;;;;;;;23.00;22.75;99033.31;6302632;28;20051;-78
2022/03/29 13:46:47;;;;;;;15.55;8.73;;;;;;;23.06;22.94;99028.06;6303239;28;20040;-78
2022/03/29 13:49:48;;;;;;;31.90;7.83;;;;;;;22.94;23.46;99024.31;6319366;28;20051;-78
2022/03/29 13:52:50;;;;;;;17.80;9.27;;;;;;;23.44;22.95;99016.91;6320827;28;20048;-78
2022/03/29 13:55:51;;;;;;;19.77;7.87;;;;;;;23.29;22.64;99019.75;6319058;28;20063;-78
2022/03/29 13:58:51;;;;;;;16.02;7.75;;;;;;;22.89;23.00;99006.28;6302678;28;20115;-77
2022/03/29 14:01:53;;;;;;;16.17;8.10;;;;;;;22.84;23.08;99008.72;6320535;28;20427;-77
2022/03/29 14:04:53;;;;;;;15.13;7.57;;;;;;;22.66;23.23;99000.47;6319166;28;20059;-77
2022/03/29 14:07:56;;;;;;;13.05;7.63;;;;;;;22.67;22.80;99008.25;6319786;28;20047;-77
2022/03/29 14:10:59;;;;;;;11.30;7.43;;;;;;;22.93;23.05;98998.72;6302389;28;20047;-77
2022/03/29 14:13:59;;;;;;;21.15;8.15;;;;;;;22.85;22.78;98993.56;6302033;28;20044;-72
2022/03/29 14:17:00;;;;;;;17.13;8.43;;;;;;;22.80;23.08;98988.03;6320359;28;20127;-72
2022/03/29 14:20:03;;;;;;;22.80;7.55;;;;;;;22.88;22.59;98988.69;6320588;28;20507;-72
2022/03/29 14:23:05;;;;;;;30.02;8.20;;;;;;;23.26;22.74;98982.06;6320322;28;20142;-72